This is the latest recevied weather packets stored in our database for station/object W5HKR. If no packets are shown the sender has not sent any weather packets the latest 10 day(s).
| Time | Temp. | Humidity | Pressure | Rain* | Wind** | Luminosity | Snow |
|---|---|---|---|---|---|---|---|
| 1778116103 | 18.33° C | 91% | 990.6 hPa | 0 mm | - | - | - |
| 1778115837 | 18.33° C | 91% | 990.6 hPa | 0 mm | - | - | - |
| 1778115805 | 19.44° C | 77% | 983.2 hPa | 0 mm | - | - | - |
| 1778115503 | 19.44° C | 77% | 983 hPa | 0 mm | - | - | - |
| 1778115202 | 18.33° C | 91% | 990.6 hPa | 0 mm | - | - | - |
| 1778114904 | 20° C | 76% | 982.7 hPa | 0 mm | - | - | - |
| 1778114754 | 18.33° C | 91% | 990.6 hPa | 0 mm | - | - | - |
| 1778114603 | 20° C | 76% | 983 hPa | 0 mm | - | - | - |
| 1778114304 | 18.33° C | 91% | 990.6 hPa | 0 mm | - | - | - |
| 1778113674 | 18.33° C | 91% | 990.6 hPa | 0 mm | - | - | - |
| 1778113404 | 20.56° C | 75% | 983.4 hPa | 0 mm | - | - | - |
| 1778113104 | 20.56° C | 75% | 983 hPa | 0 mm | - | - | - |
| 1778112803 | 21.11° C | 74% | 982.7 hPa | 0 mm | - | - | - |
| 1778112595 | 18.33° C | 91% | 990.6 hPa | 0 mm | - | - | - |
| 1778112504 | 21.11° C | 73% | 982.7 hPa | 0 mm | - | - | - |
| 1778112204 | 18.33° C | 91% | 990.6 hPa | 0 mm | - | - | - |
| 1778111904 | 18.33° C | 91% | 990.6 hPa | 0 mm | - | - | - |
| 1778111605 | 18.33° C | 91% | 990.6 hPa | 0 mm | - | - | - |
| 1778111515 | 18.33° C | 91% | 990.6 hPa | 0 mm | - | - | - |
| 1778111003 | 22.78° C | 71% | 982.7 hPa | 0 mm | - | - | - |
| 1778110704 | 18.33° C | 91% | 990.6 hPa | 0 mm | - | - | - |
| 1778110435 | 18.33° C | 91% | 990.6 hPa | 0 mm | - | - | - |
| 1778110405 | 18.33° C | 91% | 990.6 hPa | 0 mm | - | - | - |
| 1778110104 | 18.33° C | 91% | 990.6 hPa | 0 mm | - | - | - |
| 1778109805 | 18.33° C | 91% | 990.6 hPa | 0 mm | - | - | - |
* Rain latest hour (hover to see other rain measurements)
** Current wind speed in m/s (hover to see current wind gust speed)